Facundo Ferreyra

Olheiro-Chefe - Belgrano
10 Dez 2028
Domingo
Processo

Personalidade

Adaptabilidade (2) Ambição (12) Controvérsia (11) Lealdade (5) Pressão (6) Profissionalismo (8) Espírito Esportivo (17) Temperamento (6)

Perfil

Estilo de Treinamento Democrático
Licença Continental C
Determinação 6
Gestão de Pessoas 6
Motivação 7
Disciplina 7
Satisfação no Trabalho
100%
Fadiga
0%
Função Olheiro-Chefe
Salário 87.5K p/s
Contrato 14.03.2029

Desempenho

Comportamento Bom
Eficácia do Treinamento
38%
Desenvolvimento do Jogador
25%
Prevenção de Lesões
65%
Implementação Tática
40%

Eventos Recentes

Participou de uma reunião de recrutamento agora
Participou de uma reunião de recrutamento agora
Recomendou um alvo de transferência agora
Recomendou um alvo de transferência agora
Recomendou um alvo de transferência agora
Recomendou um alvo de transferência 7d atrás
Avaliou um jogador 7d atrás
Apresentou um dossiê à direção 7d atrás

Monitorando agora

212
Jogador Clube Status Habilidade Confiança Observado Última observação Último voto
Matías Budiño Colón Negociando 119 / 117 79% 1 07.12.2028 -
Diego Guallama All Boys Negociando 114 / 107 79% 1 01.12.2028 -
Riquelme Thompson-Jones Accrington Stanley Ativo 115 / 116 40% 1 30.11.2028 -
Jan Cedilnik Chikhura Ativo 88 / 94 40% 1 30.11.2028 -
Santino Baldassarri Orenburg Ativo 89 / 90 40% 1 30.11.2028 -
Victor Hernandez Santa Fe Ativo 112 / 118 40% 1 19.07.2027 -
Kazunari Kita Real Sociedad Ativo 107 / 108 40% 1 19.07.2027 -
Olivier Leroux Mouscron Ativo 98 / 105 40% 1 04.06.2027 -
Luka Andrade Montevideo City Torque Ativo 108 / 105 40% 1 04.06.2027 -
Mattia Della Rocca Pontedera Ativo 94 / 103 40% 1 04.06.2027 -
Enrico Delprato Parma Ativo 128 / 130 40% 5 29.05.2027 -
Jay Gorter Pafos Ativo 110 / 129 40% 1 29.05.2027 -
Younes Ebnoutalib Eintracht Frankfurt Ativo 124 / 142 40% 1 29.05.2027 -
Luciano Jachfe Nueva Chicago Ativo 115 / 122 40% 4 28.05.2027 -
Sergio Barlocco Trento Ativo 119 / 106 40% 3 26.05.2027 -
Alexander Prass TSG Hoffenheim Ativo 134 / 136 40% 1 26.05.2027 -
Nikita Krivtsov Krasnodar Ativo 121 / 129 40% 2 25.05.2027 -
Maxim Borisko CSKA Moscow Ativo 131 / 137 40% 3 24.05.2027 -
Lautaro Maldonado Instituto Ativo 109 / 117 40% 3 24.05.2027 -
Federico Ravaglia Bologna Ativo 137 / 133 40% 2 23.05.2027 -
Bongani Zungu Ajax Cape Town Ativo 124 / 116 40% 2 21.05.2027 -
Panajot Qirko Partizani Tirana Ativo 102 / 114 40% 2 21.05.2027 -
Martin Baturina Como Ativo 147 / 136 40% 1 18.05.2027 -
Tommaso Pobega Bologna Ativo 143 / 139 40% 1 18.05.2027 -
Federico Losas Chacarita Juniors Ativo 111 / 112 40% 3 17.05.2027 -
Nicolò Fagioli Fiorentina Ativo 147 / 147 40% 4 17.05.2027 -
Adrián Bernabé Parma Ativo 129 / 148 40% 2 17.05.2027 -
Danilo Veiga Lecce Ativo 130 / 134 40% 2 17.05.2027 -
Unai Gómez Udinese Ativo 125 / 138 40% 1 17.05.2027 -
Raoul Bellanova Atalanta Ativo 155 / 146 40% 3 16.05.2027 -
Lewis Ferguson Bologna Ativo 140 / 146 40% 3 11.05.2027 -
Luis Ingolotti Atlético Tucumán Ativo 130 / 123 40% 3 10.05.2027 -
Jan Olschowsky Borussia Mönchengladbach Ativo 113 / 117 40% 1 07.05.2027 -
Alexandr Koryakin Krasnodar Ativo 127 / 117 40% 4 06.05.2027 -
Cristopher Varela Deportivo La Guaira Ativo 123 / 123 40% 2 06.05.2027 -
Nicolò Cambiaghi Bologna Ativo 136 / 139 40% 2 06.05.2027 -
Elia Caprile Cagliari Ativo 138 / 138 40% 8 05.05.2027 -
Santiago Roggero Gimnasia y Esgrima Ativo 117 / 111 40% 1 05.05.2027 -
Jordan Zemura Udinese Ativo 138 / 140 40% 1 05.05.2027 -
Billy Gilmour Napoli Ativo 150 / 152 40% 2 04.05.2027 -
Tomáš Suslov Hellas Verona Ativo 119 / 126 40% 1 04.05.2027 -
Ilyas Ansah Hull City Ativo 129 / 143 40% 1 04.05.2027 -
Oswin Appollis Orlando Pirates Ativo 119 / 122 40% 1 03.05.2027 -
Lucas Da Cunha Como Ativo 149 / 147 40% 1 28.04.2027 -
Moisés Ramírez Volos NPS Ativo 106 / 119 40% 2 26.04.2027 -
Nuno Tavares Lazio Ativo 134 / 137 40% 1 25.04.2027 -
Gabriele Piccinini Pisa Ativo 131 / 121 40% 1 24.04.2027 -
Bjorn Meijer Sampdoria Ativo 128 / 127 40% 1 24.04.2027 -
Alessandro Sersanti Modena Ativo 130 / 123 40% 1 24.04.2027 -
Giacomo Raspadori Atalanta Ativo 153 / 146 40% 1 23.04.2027 -
Matevž Vidovšek Olimpija Ljubljana Ativo 130 / 125 40% 8 22.04.2027 -
Trevoh Chalobah Como Ativo 163 / 152 40% 2 22.04.2027 -
Mitchel Bakker Modena Ativo 131 / 124 40% 2 22.04.2027 -
Diego Gómez Brighton Ativo 147 / 141 40% 1 22.04.2027 -
Arthur Atta Fiorentina Ativo 143 / 145 40% 1 18.04.2027 -
Matthias Braunöder Carrarese Ativo 113 / 133 40% 1 14.04.2027 -
Nicolás Sumavil Platense Ativo 125 / 121 40% 4 12.04.2027 -
Richard Ludha MFK Skalica Ativo 105 / 121 40% 2 12.04.2027 -
Leandro Brey Boca Juniors Ativo 125 / 128 40% 1 12.04.2027 -
Giuseppe Leone Parma Ativo 133 / 126 40% 2 09.04.2027 -
Nahuel Manganelli San Martín Ativo 121 / 109 40% 1 02.04.2027 -
Arthur Beroe Ativo 121 / 120 40% 5 01.04.2027 -
Alexandr Chernikov Krasnodar Ativo 143 / 133 40% 1 01.04.2027 -
Petar Stanić Ludogorets Ativo 140 / 126 40% 1 31.03.2027 -
Kenneth Taylor Lazio Ativo 161 / 157 40% 1 31.03.2027 -
Nicolò Rovella Lazio Ativo 156 / 150 40% 1 31.03.2027 -
Vladimir Nazarov Pakhtakor Ativo 117 / 124 40% 1 29.03.2027 -
Iker Álvarez Real Sociedad Ativo 122 / 122 40% 1 29.03.2027 -
Matteo Lovato Padova Ativo 135 / 131 40% 1 28.03.2027 -
Finn Azaz Southampton Ativo 129 / 125 40% 1 26.03.2027 -
Martin Trnovský Podbrezova Ativo 110 / 101 40% 4 25.03.2027 -
Georginio Rutter Brighton Ativo 140 / 148 40% 1 25.03.2027 -
Matt O'Riley Brighton Ativo 145 / 146 40% 1 25.03.2027 -
Filip Marschall Stevenage Ativo 99 / 120 40% 1 23.03.2027 -
Robin Roefs Sunderland Ativo 142 / 147 40% 7 21.03.2027 -
Fran Vieites Walsall Ativo 118 / 128 40% 4 21.03.2027 -
Lewis Gibson Preston Ativo 120 / 133 40% 1 21.03.2027 -
Mats Wieffer Brighton Ativo 143 / 157 40% 1 20.03.2027 -
Rocco Vata Watford Ativo 119 / 134 40% 1 20.03.2027 -
Milan van Ewijk Coventry City Ativo 132 / 124 40% 1 20.03.2027 -
Óscar Mingueza Crystal Palace Ativo 150 / 144 40% 1 20.03.2027 -
Carl Rushworth Aston Villa Ativo 144 / 133 40% 1 18.03.2027 -
Alex Scott Bournemouth Ativo 147 / 145 40% 1 17.03.2027 -
James Trafford Leeds United Ativo 133 / 150 40% 6 15.03.2027 -
Leopold Wahlstedt Rosenborg Ativo 105 / 107 40% 2 14.03.2027 -
Lukas Jensen Millwall Ativo 125 / 128 40% 1 10.03.2027 -
Josh Keeley Luton Town Ativo 135 / 123 40% 4 08.03.2027 -
Ivor Pandur Hull City Ativo 117 / 121 40% 2 05.03.2027 -
Giorgi Mamardashvili Liverpool Ativo 156 / 149 40% 2 03.03.2027 -
Jake O'Brien Everton Ativo 149 / 137 40% 1 03.03.2027 -
Jack Currie Oxford United Ativo 135 / 132 40% 2 02.03.2027 -
James Garner Everton Ativo 149 / 152 40% 1 02.03.2027 -
Oufa Shobeir MC Alger Ativo 111 / 128 40% 2 28.02.2027 -
Grégoire Coudert Burnley Ativo 129 / 133 40% 6 27.02.2027 -
Toby Collyer West Bromwich Albion Ativo 125 / 126 40% 3 25.02.2027 -
Adam Wharton Crystal Palace Ativo 140 / 151 40% 1 25.02.2027 -
Nathan Collins Brentford Ativo 143 / 145 40% 1 25.02.2027 -
Roman Celentano FC Cincinnati Ativo 112 / 128 40% 2 24.02.2027 -
Radek Vítek Middlesbrough Ativo 134 / 136 40% 2 22.02.2027 -
Quinten Timber Crystal Palace Ativo 157 / 150 40% 1 22.02.2027 -
Yehor Yarmoliuk Brentford Ativo 135 / 159 40% 1 22.02.2027 -
Welington Southampton Ativo 134 / 140 40% 1 21.02.2027 -
Gonçalo Franco Swansea City Ativo 122 / 132 40% 1 21.02.2027 -
Patrick Schulte Columbus Crew Ativo 132 / 127 40% 4 17.02.2027 -
Mads Hermansen West Ham United Ativo 143 / 149 40% 1 17.02.2027 -
Gianluca Saro Foggia Ativo 99 / 117 40% 2 15.02.2027 -
Pelle Mattsson Norwich City Ativo 122 / 115 40% 3 12.02.2027 -
Gabriel Gudmundsson Leeds United Ativo 154 / 138 40% 1 12.02.2027 -
Jarrad Branthwaite Everton Ativo 148 / 162 40% 1 11.02.2027 -
Luca Gemello Perugia Ativo 102 / 117 40% 2 05.02.2027 -
Ştefan Târnovanu CFR Cluj Ativo 133 / 126 40% 1 05.02.2027 -
Anthony Patterson Wrexham Ativo 119 / 140 40% 3 02.02.2027 -
John Pulskamp Sporting Kansas City Ativo 119 / 120 40% 1 01.02.2027 -
Luka Gavran Toronto FC Ativo 124 / 107 40% 1 01.02.2027 -
Heorhii Yermakov Metalist Ativo 113 / 110 40% 2 31.01.2027 -
Jacob Greaves Ipswich Town Ativo 143 / 134 40% 2 30.01.2027 -
Max Bird Birmingham Ativo 134 / 132 40% 2 28.01.2027 -
Dara O'Shea Ipswich Town Ativo 146 / 128 40% 1 28.01.2027 -
Bruno Antúnez Boston River Ativo 115 / 119 40% 3 27.01.2027 -
Mateusz Kochalski Red Bull Salzburg Ativo 137 / 139 40% 1 23.01.2027 Mais informações
Ronnie Edwards Queens Park Rangers Ativo 127 / 127 40% 2 22.01.2027 -
Max Cleworth Wrexham Ativo 115 / 114 40% 1 22.01.2027 -
Darlin Yongwa Norwich City Ativo 123 / 122 40% 2 21.01.2027 -
Michael Baidoo Plymouth Argyle Ativo 118 / 129 40% 1 21.01.2027 -
Ben Nelson Leicester City Ativo 128 / 127 40% 1 18.01.2027 -
Adis Jašić Zamalek Ativo 135 / 138 40% 1 18.01.2027 -
Habib Diarra Sunderland Ativo 127 / 137 40% 1 17.01.2027 -
Luke McNally Bristol City Ativo 126 / 130 40% 1 16.01.2027 -
Hector Kyprianou Watford Ativo 131 / 123 40% 1 16.01.2027 -
Lukas Gütlbauer Wolfsberger AC Ativo 127 / 120 40% 1 12.01.2027 -
Oliver Skipp Leicester City Ativo 138 / 120 40% 1 11.01.2027 -
Samu Maccabi Netanya Ativo 101 / 103 40% 1 05.01.2027 -
Brooke Norton-Cuffy Hull City Ativo 144 / 150 40% 1 28.12.2026 -
Luciano Cingolani Gimnasia y Esgrima Ativo 117 / 118 65% 1 21.12.2026 Aprovar
Matías Contrera Hrvatski Dragovoljac Ativo 110 / 90 40% 3 01.12.2026 -
Sam Bell Bristol City Ativo 128 / 116 40% 2 01.12.2026 -
Israel Reyes Toulouse FC Ativo 137 / 137 68% 1 01.12.2026 Aprovar
Raúl Rangel Braga Ativo 132 / 132 66% 1 01.12.2026 Aprovar
Federico Pereira Toulouse FC Ativo 135 / 135 66% 1 01.12.2026 Aprovar
Esteban Obregón Montevideo City Torque Ativo 119 / 110 40% 4 30.11.2026 -
Tyrese Campbell Sheffield United Ativo 125 / 118 40% 2 29.11.2026 -
Radek Šiler Podbrezova Ativo 100 / 109 40% 1 29.11.2026 -
Malik Mothersille Stockport County Ativo 100 / 108 40% 1 27.11.2026 -
Sota Kitano Red Bull Salzburg Ativo 124 / 133 40% 1 26.11.2026 -
Keisuke Osako Sanfrecce Hiroshima Ativo 136 / 143 40% 4 24.11.2026 -
Sławomir Abramowicz Jagiellonia Ativo 126 / 128 40% 1 23.11.2026 -
Talles Magno New York City Ativo 129 / 124 40% 3 21.11.2026 -
Marcos Cuenca Zaragoza Ativo 112 / 114 40% 1 21.11.2026 -
Matías Laurino Gornik Leczna Ativo 91 / 87 40% 2 19.11.2026 -
Joe Gelhardt Hull City Ativo 132 / 120 40% 2 19.11.2026 -
Isaac Matondo Koper Ativo 123 / 101 40% 1 17.11.2026 -
Fiete Arp OB Ativo 121 / 122 40% 2 16.11.2026 -
Assad Al Hamlawi Universitatea Craiova Ativo 135 / 108 40% 1 15.11.2026 -
Brayan Gil Baltika Ativo 120 / 121 40% 1 15.11.2026 -
Emiliano Saliadarre Miramar Misiones Ativo 115 / 119 40% 3 14.11.2026 -
Yousef Salech Cardiff City Ativo 129 / 123 40% 2 14.11.2026 -
Murphy Cooper Plymouth Argyle Ativo 123 / 104 40% 2 13.11.2026 -
Luis Caicedo Spartak 1918 Ativo 81 / 90 40% 2 10.11.2026 -
Daniel Karlsbakk Sarpsborg 08 Ativo 134 / 115 40% 1 10.11.2026 -
Bamba Dieng Crvena Zvezda Ativo 133 / 122 40% 1 04.11.2026 -
Yorbe Vertessen Red Bull Salzburg Ativo 141 / 132 40% 1 03.11.2026 -
Marezi Portsmouth Ativo 121 / 130 40% 1 01.11.2026 -
Brayan Alcócer Oleksandriya Ativo 110 / 99 40% 1 01.11.2026 -
Mojmír Chytil Slavia Prague Ativo 138 / 145 40% 1 01.11.2026 -
Kelvin Yeboah Minnesota United FC Ativo 134 / 125 40% 1 31.10.2026 -
Juan Cruz de los Santos Nacional Ativo 132 / 121 40% 1 31.10.2026 -
Justo Giani Umraniyespor Ativo 108 / 112 40% 3 30.10.2026 -
Ramiro Ruiz Rodríguez Atlético Tucumán Ativo 130 / 115 40% 4 28.10.2026 -
João Valido Chaves Ativo 113 / 110 40% 1 28.10.2026 -
Niklas Steffen Thun Ativo 115 / 124 40% 1 28.10.2026 -
Alexis Cuello San Lorenzo Ativo 116 / 124 40% 3 24.10.2026 -
Cheikh Sabaly Vancouver Whitecaps Ativo 119 / 114 40% 1 24.10.2026 -
Efraín Álvarez Aston Villa Ativo 139 / 139 40% 1 24.10.2026 -
Dejan Joveljić Seattle Sounders Ativo 129 / 114 40% 4 23.10.2026 -
Tomoki Hayakawa Kashima Antlers Ativo 142 / 142 40% 2 23.10.2026 -
Ivo Mammini Beitar Jerusalem Ativo 102 / 112 40% 1 23.10.2026 -
Mohamed-Ali Cho Hull City Ativo 126 / 144 40% 1 20.10.2026 -
Lautaro Gordillo Colegiales Ativo 115 / 113 40% 1 18.10.2026 -
Johar Mejía Banfield Ativo 109 / 116 40% 1 18.10.2026 -
Germán Berterame Inter Miami CF Ativo 127 / 145 40% 2 17.10.2026 -
Job Ochieng Real Sociedad Ativo 91 / 99 40% 1 17.10.2026 -
Alexander Aravena Portland Timbers Ativo 127 / 113 40% 1 16.10.2026 -
Kévin Denkey FC Cincinnati Ativo 140 / 130 40% 3 14.10.2026 -
Eric Ramírez Ankaragucu Ativo 99 / 118 40% 1 14.10.2026 -
Luciano Cosentino Wanderers Ativo 129 / 117 40% 1 08.10.2026 -
Bautista Tomatis Racing Ativo 111 / 115 40% 1 04.10.2026 -
Nicolás Cordero Aldosivi Ativo 113 / 115 40% 2 03.10.2026 -
Ľubomír Belko Viking Ativo 123 / 116 40% 1 01.10.2026 -
Alejo Cruz Juventud Ativo 127 / 125 40% 3 28.09.2026 -
Bénie Traoré New York City Ativo 115 / 118 40% 1 28.09.2026 -
Tadeo Allende Inter Miami CF Ativo 121 / 113 40% 2 25.09.2026 -
Diego Sánchez Progreso Ativo 103 / 105 40% 1 25.09.2026 -
Gonzalo Flores Almirante Brown Ativo 104 / 105 40% 1 25.09.2026 -
José Alvarado Leon Ativo 105 / 118 40% 1 24.09.2026 -
Roberto de la Rosa Monterrey Ativo 120 / 130 40% 1 23.09.2026 -
Elias Manoel Tijuana Ativo 116 / 113 40% 1 18.09.2026 -
Ignacio Russo Tigre Ativo 131 / 122 40% 1 17.09.2026 -
Martín Ojeda Orlando City Ativo 146 / 124 40% 1 17.09.2026 -
Alexander Díaz Deportivo Riestra Ativo 108 / 110 40% 1 16.09.2026 -
Esteban da Silva Racing Ativo 120 / 112 40% 2 15.09.2026 -
Leonardo Campana New England Revolution Ativo 115 / 113 40% 1 15.09.2026 -
Alejandro Piedrahita Deportivo Pereira Ativo 115 / 124 40% 1 15.09.2026 -
Kelvin Flórez Deportes Tolima Ativo 120 / 119 40% 1 13.09.2026 -
Brayan Moreno Santa Fe Ativo 104 / 106 40% 1 13.09.2026 -
Agustín Paz Progreso Ativo 118 / 121 40% 1 12.09.2026 -
CJ dos Santos San Diego Football Club Ativo 95 / 120 40% 1 12.09.2026 -
Dmytro Riznyk Racing Genk Ativo 124 / 148 40% 1 12.09.2026 -
Marcelo Fernández Libertad Ativo 112 / 119 40% 1 10.09.2026 -
Juan David Rueda Alianza Petrolera Ativo 110 / 116 40% 1 08.09.2026 -
Diego Enríquez Sporting Cristal Ativo 133 / 129 40% 1 08.09.2026 -
Juan Moreno La Luz Ativo 117 / 119 40% 1 02.08.2026 -
Lucas Verza Olimpia Ativo 100 / 107 40% 1 02.08.2026 -